createdAt,value
2018-07-20T00:00:41.499Z,0.00
2018-07-20T00:01:41.486Z,0.00
2018-07-20T00:02:41.530Z,0.00
2018-07-20T00:03:41.463Z,0.00
2018-07-20T00:04:41.460Z,0.00
2018-07-20T00:05:41.445Z,0.00
2018-07-20T00:06:42.204Z,0.00
2018-07-20T00:07:41.481Z,0.00
2018-07-20T00:08:41.411Z,0.00
2018-07-20T00:09:41.404Z,0.00
2018-07-20T00:10:41.386Z,0.00
2018-07-20T00:11:42.208Z,0.00
2018-07-20T00:12:41.428Z,0.00
2018-07-20T00:13:41.356Z,0.00
2018-07-20T00:14:41.344Z,0.00
2018-07-20T00:15:41.334Z,0.00
2018-07-20T00:16:41.338Z,0.00
2018-07-20T00:17:41.372Z,0.00
2018-07-20T00:18:41.306Z,0.00
2018-07-20T00:19:41.292Z,0.00
2018-07-20T00:20:41.298Z,0.00
2018-07-20T00:21:41.270Z,0.00
2018-07-20T00:22:41.317Z,0.00
2018-07-20T00:23:41.250Z,0.00
2018-07-20T00:24:41.234Z,0.00
2018-07-20T00:25:41.223Z,0.00
2018-07-20T00:26:41.216Z,0.00
2018-07-20T00:27:41.773Z,0.00
2018-07-20T00:28:41.195Z,0.00
2018-07-20T00:29:41.184Z,0.00
2018-07-20T00:30:41.174Z,0.00
2018-07-20T00:31:41.165Z,0.00
2018-07-20T00:32:41.225Z,0.00
2018-07-20T00:33:41.140Z,0.00
2018-07-20T00:34:41.132Z,0.00
2018-07-20T00:35:41.123Z,0.00
2018-07-20T00:36:41.109Z,0.00
2018-07-20T00:37:41.157Z,0.00
2018-07-20T00:38:41.088Z,0.00
2018-07-20T00:39:41.085Z,0.00
2018-07-20T00:40:41.068Z,0.00
2018-07-20T00:41:41.054Z,0.00
2018-07-20T00:42:41.107Z,0.00
2018-07-20T00:43:41.032Z,0.00
2018-07-20T00:44:41.022Z,0.00
2018-07-20T00:45:41.010Z,0.00
2018-07-20T00:46:41.002Z,0.00
2018-07-20T00:47:41.051Z,0.00
2018-07-20T00:48:41.703Z,0.00
2018-07-20T00:49:40.968Z,0.00
2018-07-20T00:50:40.961Z,0.00
2018-07-20T00:51:40.960Z,0.00
2018-07-20T00:52:40.997Z,0.00
2018-07-20T00:53:40.928Z,0.00
2018-07-20T00:54:40.916Z,0.00
2018-07-20T00:55:40.903Z,0.00
2018-07-20T00:56:40.891Z,0.00
2018-07-20T00:57:40.941Z,0.00
2018-07-20T00:58:40.871Z,0.00
2018-07-20T00:59:40.861Z,0.00
2018-07-20T01:00:40.847Z,0.00
2018-07-20T01:01:40.847Z,0.00
2018-07-20T01:02:40.891Z,0.00
2018-07-20T01:03:40.819Z,0.00
2018-07-20T01:04:40.805Z,0.00
2018-07-20T01:05:40.795Z,0.00
2018-07-20T01:06:40.783Z,0.00
2018-07-20T01:07:40.833Z,0.00
2018-07-20T01:08:40.764Z,0.00
2018-07-20T01:09:41.704Z,0.00
2018-07-20T01:10:40.743Z,0.00
2018-07-20T01:11:40.733Z,0.00
2018-07-20T01:12:40.781Z,0.00
2018-07-20T01:13:40.710Z,0.00
2018-07-20T01:14:40.700Z,0.00
2018-07-20T01:15:40.687Z,0.00
2018-07-20T01:16:40.690Z,0.00
2018-07-20T01:17:40.728Z,0.00
2018-07-20T01:18:40.652Z,0.00
2018-07-20T01:19:40.648Z,0.00
2018-07-20T01:20:40.640Z,0.00
2018-07-20T01:21:40.620Z,0.00
2018-07-20T01:22:40.670Z,0.00
2018-07-20T01:23:40.598Z,0.00
2018-07-20T01:24:40.587Z,0.00
2018-07-20T01:25:40.578Z,0.00
2018-07-20T01:26:40.567Z,0.00
2018-07-20T01:27:40.617Z,0.00
2018-07-20T01:28:40.548Z,0.00
2018-07-20T01:29:40.537Z,0.00
2018-07-20T01:30:41.196Z,0.00
2018-07-20T01:31:40.515Z,0.00
2018-07-20T01:32:40.562Z,0.00
2018-07-20T01:33:40.490Z,0.00
2018-07-20T01:34:40.478Z,0.00
2018-07-20T01:35:40.471Z,0.00
2018-07-20T01:36:40.457Z,0.00
2018-07-20T01:37:40.506Z,0.00
2018-07-20T01:38:40.437Z,0.00
2018-07-20T01:39:40.429Z,0.00
2018-07-20T01:40:40.413Z,0.00
2018-07-20T01:41:40.404Z,0.00
2018-07-20T01:42:40.465Z,0.00
2018-07-20T01:43:40.379Z,0.00
2018-07-20T01:44:40.367Z,0.00
2018-07-20T01:45:40.359Z,0.00
2018-07-20T01:46:40.346Z,0.00
2018-07-20T01:47:40.337Z,0.00
2018-07-20T01:48:40.385Z,0.00
2018-07-20T01:49:40.315Z,0.00
2018-07-20T01:50:40.304Z,0.00
2018-07-20T01:51:42.207Z,0.00
2018-07-20T01:52:40.282Z,0.00
2018-07-20T01:53:40.340Z,0.00
2018-07-20T01:54:40.260Z,0.00
2018-07-20T01:55:40.251Z,0.00
2018-07-20T01:56:40.237Z,0.00
2018-07-20T01:57:40.230Z,0.00
2018-07-20T01:58:40.274Z,0.00
2018-07-20T01:59:40.210Z,0.00
2018-07-20T02:00:40.193Z,0.00
2018-07-20T02:01:40.182Z,0.00
2018-07-20T02:02:40.172Z,0.00
2018-07-20T02:03:40.219Z,0.00
2018-07-20T02:04:40.149Z,0.00
2018-07-20T02:05:40.144Z,0.00
2018-07-20T02:06:40.131Z,0.00
2018-07-20T02:07:40.119Z,0.00
2018-07-20T02:08:40.170Z,0.00
2018-07-20T02:09:40.097Z,0.00
2018-07-20T02:10:40.088Z,0.00
2018-07-20T02:11:40.116Z,0.00
2018-07-20T02:12:41.693Z,0.00
2018-07-20T02:13:40.114Z,0.00
2018-07-20T02:14:40.042Z,0.00
2018-07-20T02:15:40.031Z,0.00
2018-07-20T02:16:40.026Z,0.00
2018-07-20T02:17:40.010Z,0.00
2018-07-20T02:18:40.056Z,0.00
2018-07-20T02:19:39.989Z,0.00
2018-07-20T02:20:39.978Z,0.00
2018-07-20T02:21:39.971Z,0.00
2018-07-20T02:22:39.959Z,0.00
2018-07-20T02:23:40.003Z,0.00
2018-07-20T02:24:39.934Z,0.00
2018-07-20T02:25:39.922Z,0.00
2018-07-20T02:26:39.914Z,0.00
2018-07-20T02:27:39.903Z,0.00
2018-07-20T02:28:39.956Z,0.00
2018-07-20T02:29:39.881Z,0.00
2018-07-20T02:30:39.870Z,0.00
2018-07-20T02:31:39.859Z,0.00
2018-07-20T02:32:39.848Z,0.00
2018-07-20T02:33:40.263Z,0.00
2018-07-20T02:34:39.829Z,0.00
2018-07-20T02:35:39.818Z,0.00
2018-07-20T02:36:39.806Z,0.00
2018-07-20T02:37:39.795Z,0.00
2018-07-20T02:38:39.845Z,0.00
2018-07-20T02:39:39.773Z,0.00
2018-07-20T02:40:39.762Z,0.00
2018-07-20T02:41:39.751Z,0.00
2018-07-20T02:42:39.743Z,0.00
2018-07-20T02:43:39.798Z,0.00
2018-07-20T02:44:39.723Z,0.00
2018-07-20T02:45:39.710Z,0.00
2018-07-20T02:46:39.702Z,0.00
2018-07-20T02:47:39.695Z,0.00
2018-07-20T02:48:39.737Z,0.00
2018-07-20T02:49:39.671Z,0.00
2018-07-20T02:50:39.659Z,0.00
2018-07-20T02:51:39.649Z,0.00
2018-07-20T02:52:39.638Z,0.00
2018-07-20T02:53:39.688Z,0.00
2018-07-20T02:54:40.190Z,0.00
2018-07-20T02:55:39.602Z,0.00
2018-07-20T02:56:39.590Z,0.00
2018-07-20T02:57:39.587Z,0.00
2018-07-20T02:58:39.635Z,0.00
2018-07-20T02:59:39.575Z,4.00
2018-07-20T03:00:39.554Z,4.00
2018-07-20T03:01:39.540Z,0.00
2018-07-20T03:02:39.533Z,0.00
2018-07-20T03:03:39.588Z,4.00
2018-07-20T03:04:39.507Z,4.00
2018-07-20T03:05:39.498Z,0.00
2018-07-20T03:06:39.485Z,4.00
2018-07-20T03:07:39.477Z,4.00
2018-07-20T03:08:39.527Z,4.00
2018-07-20T03:09:39.457Z,8.00
2018-07-20T03:10:39.444Z,8.00
2018-07-20T03:11:39.433Z,8.00
2018-07-20T03:12:39.426Z,8.00
2018-07-20T03:13:39.475Z,8.00
2018-07-20T03:14:39.402Z,12.00
2018-07-20T03:15:42.187Z,12.00
2018-07-20T03:16:39.389Z,16.00
2018-07-20T03:17:39.372Z,16.00
2018-07-20T03:18:39.421Z,20.00
2018-07-20T03:19:39.350Z,24.00
2018-07-20T03:20:39.342Z,28.00
2018-07-20T03:21:39.325Z,28.00
2018-07-20T03:22:39.314Z,36.00
2018-07-20T03:23:39.376Z,40.00
2018-07-20T03:24:39.297Z,44.00
2018-07-20T03:25:39.283Z,52.00
2018-07-20T03:26:39.277Z,56.00
2018-07-20T03:27:39.264Z,64.00
2018-07-20T03:28:39.327Z,72.00
2018-07-20T03:29:39.241Z,80.00
2018-07-20T03:30:47.745Z,92.00
2018-07-20T03:31:47.427Z,100.00
2018-07-20T03:32:39.290Z,112.00
2018-07-20T03:33:39.200Z,120.00
2018-07-20T03:34:39.247Z,132.00
2018-07-20T03:35:39.178Z,148.00
2018-07-20T03:36:39.170Z,160.00
2018-07-20T03:37:39.158Z,176.00
2018-07-20T03:38:47.285Z,192.00
2018-07-20T03:39:47.230Z,204.00
2018-07-20T03:40:39.123Z,220.00
2018-07-20T03:41:39.122Z,236.00
2018-07-20T03:42:39.100Z,252.00
2018-07-20T03:43:39.090Z,272.00
2018-07-20T03:44:39.143Z,288.00
2018-07-20T03:45:39.070Z,308.00
2018-07-20T03:46:39.058Z,328.00
2018-07-20T03:47:39.048Z,352.00
2018-07-20T03:48:39.040Z,372.00
2018-07-20T03:49:39.094Z,396.00
2018-07-20T03:50:39.015Z,420.00
2018-07-20T03:51:39.004Z,448.00
2018-07-20T03:52:38.995Z,480.00
2018-07-20T03:53:38.985Z,508.00
2018-07-20T03:54:39.037Z,540.00
2018-07-20T03:55:39.813Z,572.00
2018-07-20T03:56:38.951Z,608.00
2018-07-20T03:57:38.940Z,644.00
2018-07-20T03:58:38.945Z,684.00
2018-07-20T03:59:38.981Z,720.00
2018-07-20T04:00:39.816Z,756.00
2018-07-20T04:01:38.899Z,792.00
2018-07-20T04:02:38.888Z,824.00
2018-07-20T04:03:38.873Z,864.00
2018-07-20T04:04:38.929Z,912.00
2018-07-20T04:05:38.854Z,960.00
2018-07-20T04:06:38.846Z,1016.00
2018-07-20T04:07:38.832Z,1076.00
2018-07-20T04:08:38.821Z,1136.00
2018-07-20T04:09:38.873Z,1188.00
2018-07-20T04:10:38.802Z,1220.00
2018-07-20T04:11:38.793Z,1232.00
2018-07-20T04:12:38.782Z,1248.00
2018-07-20T04:13:39.313Z,1268.00
2018-07-20T04:14:38.823Z,1300.00
2018-07-20T04:15:38.749Z,1344.00
2018-07-20T04:16:38.737Z,1396.00
2018-07-20T04:17:38.729Z,1444.00
2018-07-20T04:18:38.715Z,1504.00
2018-07-20T04:19:38.771Z,1564.00
2018-07-20T04:20:38.696Z,1624.00
2018-07-20T04:21:39.310Z,1672.00
2018-07-20T04:22:38.674Z,1724.00
2018-07-20T04:23:38.668Z,1764.00
2018-07-20T04:24:38.718Z,1804.00
2018-07-20T04:25:38.641Z,1828.00
2018-07-20T04:26:38.632Z,1848.00
2018-07-20T04:27:38.621Z,1868.00
2018-07-20T04:28:38.610Z,1900.00
2018-07-20T04:29:38.657Z,1940.00
2018-07-20T04:30:38.588Z,1992.00
2018-07-20T04:31:38.575Z,2048.00
2018-07-20T04:32:38.566Z,2100.00
2018-07-20T04:33:38.557Z,2136.00
2018-07-20T04:34:38.605Z,2164.00
2018-07-20T04:35:38.536Z,2196.00
2018-07-20T04:36:38.534Z,2224.00
2018-07-20T04:37:38.513Z,2252.00
2018-07-20T04:38:38.542Z,2280.00
2018-07-20T04:39:38.552Z,2308.00
2018-07-20T04:40:38.480Z,2336.00
2018-07-20T04:41:38.472Z,2376.00
2018-07-20T04:42:39.311Z,2420.00
2018-07-20T04:43:38.447Z,2472.00
2018-07-20T04:44:38.504Z,2532.00
2018-07-20T04:45:38.425Z,2592.00
2018-07-20T04:46:38.416Z,2652.00
2018-07-20T04:47:38.416Z,2724.00
2018-07-20T04:48:38.391Z,2800.00
2018-07-20T04:49:38.439Z,2876.00
2018-07-20T04:50:38.373Z,2960.00
2018-07-20T04:51:38.358Z,3032.00
2018-07-20T04:52:38.350Z,3092.00
2018-07-20T04:53:38.339Z,3148.00
2018-07-20T04:54:38.386Z,3196.00
2018-07-20T04:55:38.317Z,3236.00
2018-07-20T04:56:38.306Z,3280.00
2018-07-20T04:57:38.292Z,3312.00
2018-07-20T04:58:38.315Z,3340.00
2018-07-20T04:59:38.333Z,3384.00
2018-07-20T05:00:38.263Z,3440.00
2018-07-20T05:01:38.260Z,3496.00
2018-07-20T05:02:38.239Z,3552.00
2018-07-20T05:03:38.872Z,3608.00
2018-07-20T05:04:38.276Z,3688.00
2018-07-20T05:05:38.206Z,3764.00
2018-07-20T05:06:38.198Z,3852.00
2018-07-20T05:07:38.195Z,3944.00
2018-07-20T05:08:38.176Z,4044.00
2018-07-20T05:09:38.241Z,4148.00
2018-07-20T05:10:38.154Z,4256.00
2018-07-20T05:11:38.143Z,4372.00
2018-07-20T05:12:38.132Z,4488.00
2018-07-20T05:13:38.121Z,4600.00
2018-07-20T05:14:38.107Z,4712.00
2018-07-20T05:15:38.154Z,4816.00
2018-07-20T05:16:38.090Z,4920.00
2018-07-20T05:17:38.076Z,5024.00
2018-07-20T05:18:38.071Z,5132.00
2018-07-20T05:19:38.054Z,5232.00
2018-07-20T05:20:38.133Z,5348.00
2018-07-20T05:21:38.035Z,5460.00
2018-07-20T05:22:38.037Z,5564.00
2018-07-20T05:23:38.013Z,5668.00
2018-07-20T05:24:38.808Z,5764.00
2018-07-20T05:25:38.062Z,5852.00
2018-07-20T05:26:37.977Z,5932.00
2018-07-20T05:27:37.966Z,6020.00
2018-07-20T05:28:37.963Z,6100.00
2018-07-20T05:29:37.949Z,6152.00
2018-07-20T05:30:37.997Z,6212.00
2018-07-20T05:31:37.924Z,6280.00
2018-07-20T05:32:37.963Z,6348.00
2018-07-20T05:33:37.902Z,6412.00
2018-07-20T05:34:37.902Z,6468.00
2018-07-20T05:35:37.944Z,6532.00
2018-07-20T05:36:37.872Z,6592.00
2018-07-20T05:37:37.861Z,6648.00
2018-07-20T05:38:37.850Z,6700.00
2018-07-20T05:39:37.841Z,6752.00
2018-07-20T05:40:37.886Z,6796.00
2018-07-20T05:41:37.814Z,6840.00
2018-07-20T05:42:37.806Z,6872.00
2018-07-20T05:43:37.792Z,6908.00
2018-07-20T05:44:37.786Z,6956.00
2018-07-20T05:45:38.380Z,7024.00
2018-07-20T05:46:37.761Z,7104.00
2018-07-20T05:47:37.771Z,7188.00
2018-07-20T05:48:37.739Z,7276.00
2018-07-20T05:49:37.728Z,7368.00
2018-07-20T05:50:37.780Z,7480.00
2018-07-20T05:51:37.711Z,7608.00
2018-07-20T05:52:37.698Z,7748.00
2018-07-20T05:53:37.687Z,7904.00
2018-07-20T05:54:38.308Z,8132.00
2018-07-20T05:55:37.726Z,8096.00
2018-07-20T05:56:37.653Z,8548.00
2018-07-20T05:57:37.645Z,8776.00
2018-07-20T05:58:37.634Z,8972.00
2018-07-20T05:59:37.623Z,9188.00
2018-07-20T06:00:37.675Z,9416.00
2018-07-20T06:01:37.601Z,9648.00
2018-07-20T06:02:37.590Z,10028.00
2018-07-20T06:03:37.624Z,10632.00
2018-07-20T06:04:37.572Z,11128.00
2018-07-20T06:05:37.683Z,11476.00
2018-07-20T06:06:38.308Z,11692.00
2018-07-20T06:07:37.538Z,12408.00
2018-07-20T06:08:37.542Z,13288.00
2018-07-20T06:09:37.512Z,13952.00
2018-07-20T06:10:37.562Z,14004.00
2018-07-20T06:11:37.490Z,13832.00
2018-07-20T06:12:37.489Z,13848.00
2018-07-20T06:13:37.474Z,13416.00
2018-07-20T06:14:37.462Z,13288.00
2018-07-20T06:15:37.517Z,13312.00
2018-07-20T06:16:37.438Z,13608.00
2018-07-20T06:17:37.426Z,13844.00
2018-07-20T06:18:37.417Z,14144.00
2018-07-20T06:19:37.405Z,14600.00
2018-07-20T06:20:37.457Z,14960.00
2018-07-20T06:21:37.385Z,15176.00
2018-07-20T06:22:37.375Z,14672.00
2018-07-20T06:23:37.378Z,14388.00
2018-07-20T06:24:37.362Z,14484.00
2018-07-20T06:25:37.412Z,13724.00
2018-07-20T06:26:37.345Z,13728.00
2018-07-20T06:27:38.310Z,13792.00
2018-07-20T06:28:37.308Z,14504.00
2018-07-20T06:29:37.318Z,14720.00
2018-07-20T06:30:37.352Z,14896.00
2018-07-20T06:31:37.292Z,14812.00
2018-07-20T06:32:37.268Z,15436.00
2018-07-20T06:33:37.263Z,16416.00
2018-07-20T06:34:37.257Z,17536.00
2018-07-20T06:35:37.307Z,17568.00
2018-07-20T06:36:37.226Z,18368.00
2018-07-20T06:37:37.218Z,19968.00
2018-07-20T06:38:37.205Z,21280.00
2018-07-20T06:39:37.193Z,21664.00
2018-07-20T06:40:37.306Z,20416.00
2018-07-20T06:41:37.173Z,20704.00
2018-07-20T06:42:37.177Z,21216.00
2018-07-20T06:43:37.153Z,22816.00
2018-07-20T06:44:37.141Z,22272.00
2018-07-20T06:45:37.189Z,23136.00
2018-07-20T06:46:37.171Z,23776.00
2018-07-20T06:47:37.105Z,24352.00
2018-07-20T06:48:37.802Z,24576.00
2018-07-20T06:49:37.102Z,23712.00
2018-07-20T06:50:37.149Z,23104.00
2018-07-20T06:51:37.801Z,24064.00
2018-07-20T06:52:37.055Z,24480.00
2018-07-20T06:53:37.044Z,25824.00
2018-07-20T06:54:37.049Z,25760.00
2018-07-20T06:55:37.019Z,27136.00
2018-07-20T06:56:37.075Z,30592.00
2018-07-20T06:57:37.000Z,31712.00
2018-07-20T06:58:36.987Z,31104.00
2018-07-20T06:59:36.978Z,31808.00
2018-07-20T07:00:36.968Z,33728.00
2018-07-20T07:01:37.018Z,37024.00
2018-07-20T07:02:36.949Z,40032.00
2018-07-20T07:03:37.809Z,42784.00
2018-07-20T07:04:36.928Z,41728.00
2018-07-20T07:05:36.914Z,44800.00
2018-07-20T07:06:36.965Z,45824.00
2018-07-20T07:07:36.897Z,44800.00
2018-07-20T07:08:36.882Z,45472.00
2018-07-20T07:09:37.804Z,41952.00
2018-07-20T07:10:36.862Z,40608.00
2018-07-20T07:11:36.911Z,40672.00
2018-07-20T07:12:36.847Z,41536.00
2018-07-20T07:13:36.828Z,46144.00
2018-07-20T07:14:36.818Z,45248.00
2018-07-20T07:15:36.828Z,42848.00
2018-07-20T07:16:36.857Z,41728.00
2018-07-20T07:17:36.785Z,42656.00
2018-07-20T07:18:36.779Z,41408.00
2018-07-20T07:19:36.765Z,41824.00
2018-07-20T07:20:36.764Z,40416.00
2018-07-20T07:21:36.804Z,41408.00
2018-07-20T07:22:36.734Z,40320.00
2018-07-20T07:23:44.875Z,38752.00
2018-07-20T07:24:44.880Z,37632.00
2018-07-20T07:25:44.797Z,35296.00
2018-07-20T07:26:44.874Z,33504.00
2018-07-20T07:27:36.700Z,32192.00
2018-07-20T07:28:36.673Z,31456.00
2018-07-20T07:29:36.693Z,34304.00
2018-07-20T07:30:36.665Z,37600.00
2018-07-20T07:31:44.802Z,38336.00
2018-07-20T07:32:45.258Z,39168.00
2018-07-20T07:33:44.162Z,41152.00
2018-07-20T07:34:44.758Z,41920.00
2018-07-20T07:35:36.615Z,42112.00
2018-07-20T07:36:44.180Z,43168.00
2018-07-20T07:37:36.584Z,45856.00
2018-07-20T07:38:36.571Z,48800.00
2018-07-20T07:39:36.562Z,47840.00
2018-07-20T07:40:36.553Z,46720.00
2018-07-20T07:41:36.604Z,50464.00
2018-07-20T07:42:36.540Z,54240.00
2018-07-20T07:43:36.518Z,55456.00
2018-07-20T07:44:36.513Z,56192.00
2018-07-20T07:45:36.496Z,56608.00
2018-07-20T07:46:36.671Z,57792.00
2018-07-20T07:47:36.474Z,57760.00
2018-07-20T07:48:36.466Z,58720.00
2018-07-20T07:49:36.466Z,59008.00
2018-07-20T07:50:36.462Z,61504.00
2018-07-20T07:51:36.502Z,64064.00
2018-07-20T07:52:36.429Z,61376.00
2018-07-20T07:53:36.419Z,59616.00
2018-07-20T07:54:36.405Z,57664.00
2018-07-20T07:55:36.421Z,55872.00
2018-07-20T07:56:36.465Z,54816.00
2018-07-20T07:57:36.377Z,49920.00
2018-07-20T07:58:36.371Z,46208.00
2018-07-20T07:59:36.361Z,40704.00
2018-07-20T08:00:36.349Z,38016.00
2018-07-20T08:01:36.399Z,35168.00
2018-07-20T08:02:36.338Z,35936.00
2018-07-20T08:03:36.339Z,37024.00
2018-07-20T08:04:36.308Z,33952.00
2018-07-20T08:05:36.300Z,33888.00
2018-07-20T08:06:36.349Z,39872.00
2018-07-20T08:07:37.104Z,43680.00
2018-07-20T08:08:36.266Z,46720.00
2018-07-20T08:09:36.272Z,50912.00
2018-07-20T08:10:36.249Z,51968.00
2018-07-20T08:11:36.302Z,63200.00
2018-07-20T08:12:36.228Z,67712.00
2018-07-20T08:13:36.222Z,71232.00
2018-07-20T08:14:36.209Z,73248.00
2018-07-20T08:15:36.198Z,72384.00
2018-07-20T08:16:36.255Z,68224.00
2018-07-20T08:17:36.178Z,67264.00
2018-07-20T08:18:36.172Z,68128.00
2018-07-20T08:19:36.161Z,69184.00
2018-07-20T08:20:36.150Z,67936.00
2018-07-20T08:21:36.203Z,67616.00
2018-07-20T08:22:36.141Z,65344.00
2018-07-20T08:23:36.124Z,65248.00
2018-07-20T08:24:36.113Z,66080.00
2018-07-20T08:25:36.107Z,67808.00
2018-07-20T08:26:36.158Z,65888.00
2018-07-20T08:27:36.083Z,70208.00
2018-07-20T08:28:36.604Z,72384.00
2018-07-20T08:29:36.070Z,75456.00
2018-07-20T08:30:36.055Z,76000.00
2018-07-20T08:31:36.130Z,76352.00
2018-07-20T08:32:36.036Z,77792.00
2018-07-20T08:33:36.032Z,77440.00
2018-07-20T08:34:36.019Z,73280.00
2018-07-20T08:35:36.013Z,70624.00
2018-07-20T08:36:35.999Z,73216.00
2018-07-20T08:37:36.052Z,74720.00
2018-07-20T08:38:35.983Z,77504.00
2018-07-20T08:39:35.976Z,75552.00
2018-07-20T08:40:35.963Z,72416.00
2018-07-20T08:41:35.957Z,72640.00
2018-07-20T08:42:36.008Z,71264.00
2018-07-20T08:43:35.940Z,71200.00
2018-07-20T08:44:35.930Z,71616.00
2018-07-20T08:45:35.922Z,70976.00
2018-07-20T08:46:35.973Z,72896.00
2018-07-20T08:47:35.976Z,74784.00
2018-07-20T08:48:35.891Z,77248.00
2018-07-20T08:49:36.603Z,79424.00
2018-07-20T08:50:35.877Z,83648.00
2018-07-20T08:51:35.868Z,84384.00
2018-07-20T08:52:35.918Z,81248.00
2018-07-20T08:53:35.849Z,80800.00
2018-07-20T08:54:35.838Z,80416.00
2018-07-20T08:55:35.829Z,79808.00
2018-07-20T08:56:35.821Z,83584.00
2018-07-20T08:57:35.876Z,84160.00
2018-07-20T08:58:35.808Z,86880.00
2018-07-20T08:59:35.796Z,87264.00
2018-07-20T09:00:35.785Z,87104.00
2018-07-20T09:01:35.806Z,85760.00
2018-07-20T09:02:35.835Z,85856.00
2018-07-20T09:03:35.806Z,84928.00
2018-07-20T09:04:35.754Z,85920.00
2018-07-20T09:05:35.756Z,86080.00
2018-07-20T09:06:35.743Z,86208.00
2018-07-20T09:07:35.803Z,86304.00
2018-07-20T09:08:35.720Z,87872.00
2018-07-20T09:09:35.712Z,88544.00
2018-07-20T09:10:36.605Z,89120.00
2018-07-20T09:11:35.696Z,88320.00
2018-07-20T09:12:35.758Z,83200.00
2018-07-20T09:13:35.712Z,80352.00
2018-07-20T09:14:35.670Z,83136.00
2018-07-20T09:15:35.664Z,87424.00
2018-07-20T09:16:35.656Z,90880.00
2018-07-20T09:17:35.712Z,89056.00
2018-07-20T09:18:35.639Z,86016.00
2018-07-20T09:19:35.631Z,86624.00
2018-07-20T09:20:35.632Z,87776.00
2018-07-20T09:21:35.617Z,90848.00
2018-07-20T09:22:35.672Z,93472.00
2018-07-20T09:23:35.603Z,94240.00
2018-07-20T09:24:35.591Z,93312.00
2018-07-20T09:25:35.584Z,91424.00
2018-07-20T09:26:35.575Z,88928.00
2018-07-20T09:27:35.632Z,89664.00
2018-07-20T09:28:35.561Z,89408.00
2018-07-20T09:29:35.552Z,92000.00
2018-07-20T09:30:35.550Z,98304.00
2018-07-20T09:31:36.098Z,98272.00
2018-07-20T09:32:35.588Z,95840.00
2018-07-20T09:33:35.521Z,94432.00
2018-07-20T09:34:35.513Z,93344.00
2018-07-20T09:35:35.507Z,93312.00
2018-07-20T09:36:35.496Z,91104.00
2018-07-20T09:37:35.551Z,91200.00
2018-07-20T09:38:35.482Z,95424.00
2018-07-20T09:39:35.474Z,102240.00
2018-07-20T09:40:35.471Z,103712.00
2018-07-20T09:41:35.460Z,96832.00
2018-07-20T09:42:35.513Z,97536.00
2018-07-20T09:43:35.445Z,95744.00
2018-07-20T09:44:35.442Z,103136.00
2018-07-20T09:45:35.434Z,105952.00
2018-07-20T09:46:35.426Z,108160.00
2018-07-20T09:47:35.475Z,109056.00
2018-07-20T09:48:35.409Z,108224.00
2018-07-20T09:49:35.400Z,105952.00
2018-07-20T09:50:35.394Z,108192.00
2018-07-20T09:51:35.386Z,109280.00
2018-07-20T09:52:35.669Z,111840.00
2018-07-20T09:53:35.375Z,107328.00
2018-07-20T09:54:35.367Z,106752.00
2018-07-20T09:55:35.358Z,104192.00
2018-07-20T09:56:35.352Z,102176.00
2018-07-20T09:57:35.407Z,108032.00
2018-07-20T09:58:35.412Z,108736.00
2018-07-20T09:59:35.392Z,110432.00
2018-07-20T10:00:35.324Z,113824.00
2018-07-20T10:01:35.315Z,112544.00
2018-07-20T10:02:35.376Z,99584.00
2018-07-20T10:03:35.304Z,90592.00
2018-07-20T10:04:35.295Z,78400.00
2018-07-20T10:05:35.289Z,77376.00
2018-07-20T10:06:35.281Z,84704.00
2018-07-20T10:07:35.340Z,91552.00
2018-07-20T10:08:35.267Z,99488.00
2018-07-20T10:09:35.264Z,100672.00
2018-07-20T10:10:35.253Z,104832.00
2018-07-20T10:11:35.275Z,106592.00
2018-07-20T10:12:35.363Z,108160.00
2018-07-20T10:13:36.087Z,109152.00
2018-07-20T10:14:35.227Z,108736.00
2018-07-20T10:15:35.222Z,103648.00
2018-07-20T10:16:35.216Z,98720.00
2018-07-20T10:17:35.290Z,103488.00
2018-07-20T10:18:35.202Z,106144.00
2018-07-20T10:19:35.220Z,106848.00
2018-07-20T10:20:35.190Z,104960.00
2018-07-20T10:21:35.185Z,98560.00
2018-07-20T10:22:35.176Z,100864.00
2018-07-20T10:23:35.229Z,101408.00
2018-07-20T10:24:35.161Z,105920.00
2018-07-20T10:25:35.207Z,107360.00
2018-07-20T10:26:35.148Z,107712.00
2018-07-20T10:27:35.141Z,110144.00
2018-07-20T10:28:35.195Z,108000.00
2018-07-20T10:29:35.128Z,109024.00
2018-07-20T10:30:35.158Z,102432.00
2018-07-20T10:31:35.117Z,102752.00
2018-07-20T10:32:35.111Z,103776.00
2018-07-20T10:33:35.166Z,100832.00
2018-07-20T10:34:36.078Z,105120.00
2018-07-20T10:35:35.094Z,105536.00
2018-07-20T10:36:35.098Z,106368.00
2018-07-20T10:37:35.080Z,107456.00
2018-07-20T10:38:35.132Z,105536.00
2018-07-20T10:39:35.067Z,103616.00
2018-07-20T10:40:35.060Z,102336.00
2018-07-20T10:41:35.057Z,104160.00
2018-07-20T10:42:35.048Z,104160.00
2018-07-20T10:43:35.104Z,103808.00
2018-07-20T10:44:35.040Z,103008.00
2018-07-20T10:45:35.033Z,98112.00
2018-07-20T10:46:35.023Z,97664.00
2018-07-20T10:47:35.017Z,99104.00
2018-07-20T10:48:35.075Z,100736.00
2018-07-20T10:49:35.027Z,103552.00
2018-07-20T10:50:35.003Z,98976.00
2018-07-20T10:51:34.996Z,100032.00
2018-07-20T10:52:34.991Z,100768.00
2018-07-20T10:53:35.044Z,102496.00
2018-07-20T10:54:34.976Z,103584.00
2018-07-20T10:55:35.567Z,102208.00
2018-07-20T10:56:34.962Z,99008.00
2018-07-20T10:57:34.963Z,95264.00
2018-07-20T10:58:35.012Z,93408.00
2018-07-20T10:59:34.948Z,92768.00
2018-07-20T11:00:34.944Z,92864.00
2018-07-20T11:01:35.039Z,97696.00
2018-07-20T11:02:34.933Z,98368.00
2018-07-20T11:03:34.988Z,97632.00
2018-07-20T11:04:34.924Z,98688.00
2018-07-20T11:05:34.916Z,98816.00
2018-07-20T11:06:42.436Z,97312.00
2018-07-20T11:07:34.905Z,92928.00
2018-07-20T11:08:34.957Z,90304.00
2018-07-20T11:09:34.900Z,86496.00
2018-07-20T11:10:34.882Z,91008.00
2018-07-20T11:11:34.877Z,93312.00
2018-07-20T11:12:34.870Z,95552.00
2018-07-20T11:13:34.968Z,99840.00
2018-07-20T11:14:43.013Z,97376.00
2018-07-20T11:15:34.850Z,97760.00
2018-07-20T11:16:35.623Z,96320.00
2018-07-20T11:17:34.845Z,96256.00
2018-07-20T11:18:43.819Z,95328.00
2018-07-20T11:19:34.828Z,94912.00
2018-07-20T11:20:34.840Z,89440.00
2018-07-20T11:21:34.819Z,89120.00
2018-07-20T11:22:34.807Z,90272.00
2018-07-20T11:23:34.866Z,93184.00
2018-07-20T11:24:34.799Z,91904.00
2018-07-20T11:25:34.793Z,96064.00
2018-07-20T11:26:34.790Z,93120.00
2018-07-20T11:27:34.777Z,92896.00
2018-07-20T11:28:34.832Z,97888.00
2018-07-20T11:29:34.767Z,99008.00
2018-07-20T11:30:35.943Z,99712.00
2018-07-20T11:31:34.758Z,98592.00
2018-07-20T11:32:34.759Z,97120.00
2018-07-20T11:33:34.806Z,96928.00
2018-07-20T11:34:34.782Z,95712.00
2018-07-20T11:35:34.733Z,93120.00
2018-07-20T11:36:34.727Z,94784.00
2018-07-20T11:37:34.738Z,97120.00
2018-07-20T11:38:34.776Z,96320.00
2018-07-20T11:39:34.707Z,97952.00
2018-07-20T11:40:35.651Z,99744.00
2018-07-20T11:41:34.717Z,101056.00
2018-07-20T11:42:34.767Z,100896.00
2018-07-20T11:43:36.097Z,99744.00
2018-07-20T11:44:34.679Z,101280.00
2018-07-20T11:45:34.675Z,106112.00
2018-07-20T11:46:34.752Z,100096.00
2018-07-20T11:47:34.667Z,103840.00
2018-07-20T11:48:34.727Z,110496.00
2018-07-20T11:49:34.650Z,99648.00
2018-07-20T11:50:34.650Z,88192.00
2018-07-20T11:51:34.650Z,106688.00
2018-07-20T11:52:34.636Z,98976.00
2018-07-20T11:53:34.701Z,93856.00
2018-07-20T11:54:34.630Z,95968.00
2018-07-20T11:55:34.624Z,92704.00
2018-07-20T11:56:34.615Z,100512.00
2018-07-20T11:57:34.615Z,101600.00
2018-07-20T11:58:34.670Z,97408.00
2018-07-20T11:59:34.598Z,101440.00
2018-07-20T12:00:34.598Z,101536.00
2018-07-20T12:01:35.138Z,98304.00
2018-07-20T12:02:34.581Z,98656.00
2018-07-20T12:03:34.641Z,97728.00
2018-07-20T12:04:34.580Z,98176.00
2018-07-20T12:05:34.572Z,96608.00
2018-07-20T12:06:34.561Z,96544.00
2018-07-20T12:07:34.557Z,97280.00
2018-07-20T12:08:34.549Z,103680.00
2018-07-20T12:09:34.604Z,101952.00
2018-07-20T12:10:34.542Z,101504.00
2018-07-20T12:11:34.535Z,101280.00